sensor_id;sensor_type;location;lat;lon;timestamp;P1;durP1;ratioP1;P2;durP2;ratioP2
31692;SDS011;37436;53.230;6.614;2023-03-14T00:00:51;20.30;;;3.75;;
31692;SDS011;37436;53.230;6.614;2023-03-14T00:03:30;13.00;;;2.22;;
31692;SDS011;37436;53.230;6.614;2023-03-14T00:06:13;18.80;;;3.78;;
31692;SDS011;37436;53.230;6.614;2023-03-14T00:08:44;19.77;;;2.75;;
31692;SDS011;37436;53.230;6.614;2023-03-14T00:11:19;17.40;;;3.25;;
31692;SDS011;37436;53.230;6.614;2023-03-14T00:13:49;35.85;;;4.55;;
31692;SDS011;37436;53.230;6.614;2023-03-14T00:16:40;35.53;;;4.30;;
31692;SDS011;37436;53.230;6.614;2023-03-14T00:19:11;27.58;;;2.90;;
31692;SDS011;37436;53.230;6.614;2023-03-14T00:21:37;28.05;;;4.68;;
31692;SDS011;37436;53.230;6.614;2023-03-14T00:24:07;23.75;;;3.70;;
31692;SDS011;37436;53.230;6.614;2023-03-14T00:29:33;28.08;;;3.78;;
31692;SDS011;37436;53.230;6.614;2023-03-14T00:32:03;22.77;;;4.13;;
31692;SDS011;37436;53.230;6.614;2023-03-14T00:34:34;15.88;;;2.40;;
31692;SDS011;37436;53.230;6.614;2023-03-14T00:37:06;21.70;;;3.67;;
31692;SDS011;37436;53.230;6.614;2023-03-14T00:39:35;20.50;;;2.80;;
31692;SDS011;37436;53.230;6.614;2023-03-14T00:42:06;8.70;;;2.72;;
31692;SDS011;37436;53.230;6.614;2023-03-14T00:47:49;26.73;;;3.65;;
31692;SDS011;37436;53.230;6.614;2023-03-14T00:50:38;22.85;;;3.67;;
31692;SDS011;37436;53.230;6.614;2023-03-14T00:53:13;12.60;;;2.92;;
31692;SDS011;37436;53.230;6.614;2023-03-14T00:55:45;19.92;;;2.58;;
31692;SDS011;37436;53.230;6.614;2023-03-14T00:58:12;30.90;;;3.80;;
31692;SDS011;37436;53.230;6.614;2023-03-14T01:00:55;34.45;;;4.55;;
31692;SDS011;37436;53.230;6.614;2023-03-14T01:03:37;19.02;;;3.08;;
31692;SDS011;37436;53.230;6.614;2023-03-14T01:06:08;26.70;;;3.67;;
31692;SDS011;37436;53.230;6.614;2023-03-14T01:08:41;18.73;;;3.70;;
31692;SDS011;37436;53.230;6.614;2023-03-14T01:11:10;20.40;;;4.78;;
31692;SDS011;37436;53.230;6.614;2023-03-14T01:13:55;27.80;;;4.18;;
31692;SDS011;37436;53.230;6.614;2023-03-14T01:16:26;18.75;;;2.78;;
31692;SDS011;37436;53.230;6.614;2023-03-14T01:19:01;9.00;;;2.28;;
31692;SDS011;37436;53.230;6.614;2023-03-14T01:21:38;12.07;;;2.95;;
31692;SDS011;37436;53.230;6.614;2023-03-14T01:24:30;21.95;;;4.72;;
31692;SDS011;37436;53.230;6.614;2023-03-14T01:26:59;12.23;;;3.08;;
31692;SDS011;37436;53.230;6.614;2023-03-14T01:29:37;18.02;;;4.03;;
31692;SDS011;37436;53.230;6.614;2023-03-14T01:32:17;19.65;;;4.20;;
31692;SDS011;37436;53.230;6.614;2023-03-14T01:34:57;14.15;;;4.25;;
31692;SDS011;37436;53.230;6.614;2023-03-14T01:37:24;6.07;;;2.65;;
31692;SDS011;37436;53.230;6.614;2023-03-14T01:42:42;12.27;;;3.05;;
31692;SDS011;37436;53.230;6.614;2023-03-14T01:51:51;11.40;;;2.17;;
31692;SDS011;37436;53.230;6.614;2023-03-14T01:57:24;11.77;;;2.80;;
31692;SDS011;37436;53.230;6.614;2023-03-14T02:03:27;8.57;;;2.38;;
31692;SDS011;37436;53.230;6.614;2023-03-14T02:06:04;11.20;;;3.72;;
31692;SDS011;37436;53.230;6.614;2023-03-14T02:08:52;13.50;;;3.08;;
31692;SDS011;37436;53.230;6.614;2023-03-14T02:11:20;11.63;;;2.15;;
31692;SDS011;37436;53.230;6.614;2023-03-14T02:13:47;15.57;;;2.13;;
31692;SDS011;37436;53.230;6.614;2023-03-14T02:16:17;9.50;;;2.10;;
31692;SDS011;37436;53.230;6.614;2023-03-14T02:18:46;9.35;;;1.65;;
31692;SDS011;37436;53.230;6.614;2023-03-14T02:21:23;23.85;;;3.42;;
31692;SDS011;37436;53.230;6.614;2023-03-14T02:26:28;7.77;;;1.47;;
31692;SDS011;37436;53.230;6.614;2023-03-14T02:29:05;10.50;;;2.17;;
31692;SDS011;37436;53.230;6.614;2023-03-14T02:31:44;14.32;;;1.38;;
31692;SDS011;37436;53.230;6.614;2023-03-14T02:34:13;2.95;;;0.93;;
31692;SDS011;37436;53.230;6.614;2023-03-14T02:36:44;9.45;;;1.83;;
31692;SDS011;37436;53.230;6.614;2023-03-14T02:39:15;7.28;;;1.80;;
31692;SDS011;37436;53.230;6.614;2023-03-14T02:42:04;6.53;;;1.70;;
31692;SDS011;37436;53.230;6.614;2023-03-14T02:44:31;11.13;;;2.00;;
31692;SDS011;37436;53.230;6.614;2023-03-14T02:47:20;11.65;;;1.13;;
31692;SDS011;37436;53.230;6.614;2023-03-14T02:49:57;10.73;;;2.05;;
31692;SDS011;37436;53.230;6.614;2023-03-14T02:52:41;16.63;;;1.58;;
31692;SDS011;37436;53.230;6.614;2023-03-14T02:55:29;16.83;;;2.15;;
31692;SDS011;37436;53.230;6.614;2023-03-14T02:57:55;16.63;;;1.80;;
31692;SDS011;37436;53.230;6.614;2023-03-14T03:00:25;18.25;;;3.20;;
31692;SDS011;37436;53.230;6.614;2023-03-14T03:02:56;4.25;;;1.42;;
31692;SDS011;37436;53.230;6.614;2023-03-14T03:05:26;11.50;;;1.55;;
31692;SDS011;37436;53.230;6.614;2023-03-14T03:08:00;10.95;;;1.63;;
31692;SDS011;37436;53.230;6.614;2023-03-14T03:10:27;10.02;;;2.17;;
31692;SDS011;37436;53.230;6.614;2023-03-14T03:12:56;12.98;;;2.55;;
31692;SDS011;37436;53.230;6.614;2023-03-14T03:18:11;17.05;;;2.15;;
31692;SDS011;37436;53.230;6.614;2023-03-14T03:23:27;6.55;;;1.85;;
31692;SDS011;37436;53.230;6.614;2023-03-14T03:32:22;13.23;;;2.38;;
31692;SDS011;37436;53.230;6.614;2023-03-14T03:34:59;22.50;;;4.40;;
31692;SDS011;37436;53.230;6.614;2023-03-14T03:37:25;11.73;;;2.95;;
31692;SDS011;37436;53.230;6.614;2023-03-14T03:39:59;16.58;;;2.70;;
31692;SDS011;37436;53.230;6.614;2023-03-14T03:42:29;3.53;;;1.83;;
31692;SDS011;37436;53.230;6.614;2023-03-14T03:53:45;6.82;;;1.90;;
31692;SDS011;37436;53.230;6.614;2023-03-14T03:56:21;10.32;;;2.30;;
31692;SDS011;37436;53.230;6.614;2023-03-14T03:58:50;9.45;;;2.53;;
31692;SDS011;37436;53.230;6.614;2023-03-14T04:01:27;29.40;;;4.03;;
31692;SDS011;37436;53.230;6.614;2023-03-14T04:06:40;17.45;;;3.47;;
31692;SDS011;37436;53.230;6.614;2023-03-14T04:09:07;8.05;;;2.15;;
31692;SDS011;37436;53.230;6.614;2023-03-14T04:11:50;18.58;;;4.10;;
31692;SDS011;37436;53.230;6.614;2023-03-14T04:14:18;7.40;;;2.65;;
31692;SDS011;37436;53.230;6.614;2023-03-14T04:16:50;18.65;;;2.90;;
31692;SDS011;37436;53.230;6.614;2023-03-14T04:19:20;10.93;;;2.70;;
31692;SDS011;37436;53.230;6.614;2023-03-14T04:24:45;27.52;;;5.63;;
31692;SDS011;37436;53.230;6.614;2023-03-14T04:27:35;22.45;;;4.43;;
31692;SDS011;37436;53.230;6.614;2023-03-14T04:30:02;17.73;;;4.43;;
31692;SDS011;37436;53.230;6.614;2023-03-14T04:32:44;17.63;;;3.17;;
31692;SDS011;37436;53.230;6.614;2023-03-14T04:35:13;14.07;;;4.72;;
31692;SDS011;37436;53.230;6.614;2023-03-14T04:37:39;13.05;;;2.38;;
31692;SDS011;37436;53.230;6.614;2023-03-14T04:40:11;31.88;;;5.00;;
31692;SDS011;37436;53.230;6.614;2023-03-14T04:42:41;10.82;;;3.35;;
31692;SDS011;37436;53.230;6.614;2023-03-14T04:45:14;19.52;;;4.72;;
31692;SDS011;37436;53.230;6.614;2023-03-14T04:47:42;21.75;;;4.20;;
31692;SDS011;37436;53.230;6.614;2023-03-14T04:50:17;19.98;;;4.85;;
31692;SDS011;37436;53.230;6.614;2023-03-14T04:52:44;23.42;;;4.10;;
31692;SDS011;37436;53.230;6.614;2023-03-14T04:55:10;14.73;;;3.15;;
31692;SDS011;37436;53.230;6.614;2023-03-14T04:57:48;10.55;;;3.92;;
31692;SDS011;37436;53.230;6.614;2023-03-14T05:00:14;14.98;;;4.95;;
31692;SDS011;37436;53.230;6.614;2023-03-14T05:02:45;15.73;;;4.35;;
31692;SDS011;37436;53.230;6.614;2023-03-14T05:05:20;12.00;;;4.35;;
31692;SDS011;37436;53.230;6.614;2023-03-14T05:08:03;18.45;;;3.65;;
31692;SDS011;37436;53.230;6.614;2023-03-14T05:10:30;19.00;;;4.28;;
31692;SDS011;37436;53.230;6.614;2023-03-14T05:12:56;5.53;;;2.38;;
31692;SDS011;37436;53.230;6.614;2023-03-14T05:15:32;12.98;;;4.68;;
31692;SDS011;37436;53.230;6.614;2023-03-14T05:18:01;16.23;;;3.65;;
31692;SDS011;37436;53.230;6.614;2023-03-14T05:20:38;14.73;;;5.00;;
31692;SDS011;37436;53.230;6.614;2023-03-14T05:25:30;9.35;;;4.72;;
31692;SDS011;37436;53.230;6.614;2023-03-14T05:28:01;24.27;;;4.22;;
31692;SDS011;37436;53.230;6.614;2023-03-14T05:30:30;12.40;;;2.97;;
31692;SDS011;37436;53.230;6.614;2023-03-14T05:33:01;12.93;;;3.80;;
31692;SDS011;37436;53.230;6.614;2023-03-14T05:35:31;17.05;;;2.97;;
31692;SDS011;37436;53.230;6.614;2023-03-14T05:38:02;12.77;;;4.20;;
31692;SDS011;37436;53.230;6.614;2023-03-14T05:43:26;11.40;;;3.28;;
31692;SDS011;37436;53.230;6.614;2023-03-14T05:45:52;14.32;;;5.13;;
31692;SDS011;37436;53.230;6.614;2023-03-14T05:48:24;15.82;;;4.15;;
31692;SDS011;37436;53.230;6.614;2023-03-14T05:50:54;17.70;;;3.10;;
31692;SDS011;37436;53.230;6.614;2023-03-14T05:53:21;8.20;;;2.30;;
31692;SDS011;37436;53.230;6.614;2023-03-14T05:55:57;13.45;;;4.18;;
31692;SDS011;37436;53.230;6.614;2023-03-14T05:58:27;12.57;;;3.13;;
31692;SDS011;37436;53.230;6.614;2023-03-14T06:00:57;9.55;;;2.80;;
31692;SDS011;37436;53.230;6.614;2023-03-14T06:03:30;20.25;;;3.35;;
31692;SDS011;37436;53.230;6.614;2023-03-14T06:08:55;7.60;;;3.08;;
31692;SDS011;37436;53.230;6.614;2023-03-14T06:11:23;6.30;;;3.35;;
31692;SDS011;37436;53.230;6.614;2023-03-14T06:13:50;2.72;;;1.83;;
31692;SDS011;37436;53.230;6.614;2023-03-14T06:16:16;9.15;;;3.03;;
31692;SDS011;37436;53.230;6.614;2023-03-14T06:19:04;11.48;;;2.65;;
31692;SDS011;37436;53.230;6.614;2023-03-14T06:21:34;11.10;;;2.38;;
31692;SDS011;37436;53.230;6.614;2023-03-14T06:24:01;9.13;;;2.25;;
31692;SDS011;37436;53.230;6.614;2023-03-14T06:26:28;10.55;;;2.00;;
31692;SDS011;37436;53.230;6.614;2023-03-14T06:28:56;4.68;;;2.55;;
31692;SDS011;37436;53.230;6.614;2023-03-14T06:31:29;2.47;;;1.05;;
31692;SDS011;37436;53.230;6.614;2023-03-14T06:36:52;6.75;;;1.70;;
31692;SDS011;37436;53.230;6.614;2023-03-14T06:39:18;5.68;;;0.95;;
31692;SDS011;37436;53.230;6.614;2023-03-14T06:41:44;23.95;;;2.33;;
31692;SDS011;37436;53.230;6.614;2023-03-14T06:44:11;28.70;;;2.10;;
31692;SDS011;37436;53.230;6.614;2023-03-14T06:46:37;13.38;;;2.03;;
31692;SDS011;37436;53.230;6.614;2023-03-14T06:49:04;16.08;;;2.08;;
31692;SDS011;37436;53.230;6.614;2023-03-14T06:51:43;8.70;;;1.90;;
31692;SDS011;37436;53.230;6.614;2023-03-14T06:54:12;20.10;;;2.05;;
31692;SDS011;37436;53.230;6.614;2023-03-14T06:56:39;28.40;;;2.05;;
31692;SDS011;37436;53.230;6.614;2023-03-14T06:59:10;9.05;;;1.55;;
31692;SDS011;37436;53.230;6.614;2023-03-14T07:01:36;15.05;;;1.83;;
31692;SDS011;37436;53.230;6.614;2023-03-14T07:04:04;17.33;;;1.80;;
31692;SDS011;37436;53.230;6.614;2023-03-14T07:06:32;26.83;;;2.28;;
31692;SDS011;37436;53.230;6.614;2023-03-14T07:09:09;27.02;;;2.08;;
31692;SDS011;37436;53.230;6.614;2023-03-14T07:11:44;8.57;;;1.48;;
31692;SDS011;37436;53.230;6.614;2023-03-14T07:14:11;16.15;;;1.90;;
31692;SDS011;37436;53.230;6.614;2023-03-14T07:16:44;13.68;;;1.77;;
31692;SDS011;37436;53.230;6.614;2023-03-14T07:19:13;13.73;;;1.15;;
31692;SDS011;37436;53.230;6.614;2023-03-14T07:21:39;17.00;;;1.48;;
31692;SDS011;37436;53.230;6.614;2023-03-14T07:24:05;8.75;;;1.45;;
31692;SDS011;37436;53.230;6.614;2023-03-14T07:26:34;13.98;;;1.20;;
31692;SDS011;37436;53.230;6.614;2023-03-14T07:29:00;19.20;;;1.20;;
31692;SDS011;37436;53.230;6.614;2023-03-14T07:31:29;9.73;;;0.57;;
31692;SDS011;37436;53.230;6.614;2023-03-14T07:33:57;1.58;;;0.32;;
31692;SDS011;37436;53.230;6.614;2023-03-14T07:36:31;5.88;;;0.52;;
31692;SDS011;37436;53.230;6.614;2023-03-14T07:39:01;5.90;;;0.90;;
31692;SDS011;37436;53.230;6.614;2023-03-14T07:41:27;2.75;;;0.57;;
31692;SDS011;37436;53.230;6.614;2023-03-14T07:43:53;9.23;;;0.57;;
31692;SDS011;37436;53.230;6.614;2023-03-14T07:46:21;10.70;;;0.52;;
31692;SDS011;37436;53.230;6.614;2023-03-14T07:49:19;16.00;;;0.65;;
31692;SDS011;37436;53.230;6.614;2023-03-14T07:54:55;0.00;;;0.00;;
31692;SDS011;37436;53.230;6.614;2023-03-14T07:57:34;2.85;;;0.70;;
31692;SDS011;37436;53.230;6.614;2023-03-14T08:00:01;18.35;;;1.50;;
31692;SDS011;37436;53.230;6.614;2023-03-14T08:02:29;6.60;;;0.40;;
31692;SDS011;37436;53.230;6.614;2023-03-14T08:05:01;10.18;;;0.80;;
31692;SDS011;37436;53.230;6.614;2023-03-14T08:07:30;4.43;;;0.80;;
31692;SDS011;37436;53.230;6.614;2023-03-14T08:09:56;9.20;;;0.90;;
31692;SDS011;37436;53.230;6.614;2023-03-14T08:12:25;3.75;;;0.70;;
31692;SDS011;37436;53.230;6.614;2023-03-14T08:14:52;5.90;;;1.05;;
31692;SDS011;37436;53.230;6.614;2023-03-14T08:17:18;11.93;;;1.70;;
31692;SDS011;37436;53.230;6.614;2023-03-14T08:19:48;6.68;;;1.23;;
31692;SDS011;37436;53.230;6.614;2023-03-14T08:22:14;10.57;;;1.13;;
31692;SDS011;37436;53.230;6.614;2023-03-14T08:24:41;10.43;;;1.13;;
31692;SDS011;37436;53.230;6.614;2023-03-14T08:27:07;2.45;;;0.80;;
31692;SDS011;37436;53.230;6.614;2023-03-14T08:29:34;11.27;;;0.95;;
31692;SDS011;37436;53.230;6.614;2023-03-14T08:32:05;9.18;;;1.20;;
31692;SDS011;37436;53.230;6.614;2023-03-14T08:34:38;9.82;;;1.20;;
31692;SDS011;37436;53.230;6.614;2023-03-14T08:37:05;3.45;;;1.08;;
31692;SDS011;37436;53.230;6.614;2023-03-14T08:39:33;18.80;;;2.20;;
31692;SDS011;37436;53.230;6.614;2023-03-14T08:42:12;14.27;;;1.42;;
31692;SDS011;37436;53.230;6.614;2023-03-14T08:44:41;8.10;;;1.30;;
31692;SDS011;37436;53.230;6.614;2023-03-14T08:47:08;6.63;;;1.10;;
31692;SDS011;37436;53.230;6.614;2023-03-14T08:49:53;10.50;;;1.42;;
31692;SDS011;37436;53.230;6.614;2023-03-14T08:52:40;13.80;;;1.88;;
31692;SDS011;37436;53.230;6.614;2023-03-14T08:55:12;12.82;;;1.40;;
31692;SDS011;37436;53.230;6.614;2023-03-14T08:57:46;13.07;;;2.08;;
31692;SDS011;37436;53.230;6.614;2023-03-14T09:00:25;7.05;;;1.85;;
31692;SDS011;37436;53.230;6.614;2023-03-14T09:02:52;22.67;;;2.17;;
31692;SDS011;37436;53.230;6.614;2023-03-14T09:05:18;38.67;;;4.20;;
31692;SDS011;37436;53.230;6.614;2023-03-14T09:07:45;20.90;;;2.35;;
31692;SDS011;37436;53.230;6.614;2023-03-14T09:10:17;25.30;;;2.55;;
31692;SDS011;37436;53.230;6.614;2023-03-14T09:12:50;23.13;;;2.47;;
31692;SDS011;37436;53.230;6.614;2023-03-14T09:15:21;29.35;;;3.35;;
31692;SDS011;37436;53.230;6.614;2023-03-14T09:18:12;18.23;;;3.03;;
31692;SDS011;37436;53.230;6.614;2023-03-14T09:20:42;21.63;;;2.65;;
31692;SDS011;37436;53.230;6.614;2023-03-14T09:23:28;28.80;;;2.95;;
31692;SDS011;37436;53.230;6.614;2023-03-14T09:25:56;35.45;;;3.90;;
31692;SDS011;37436;53.230;6.614;2023-03-14T09:28:22;16.15;;;2.55;;
31692;SDS011;37436;53.230;6.614;2023-03-14T09:30:57;30.92;;;3.42;;
31692;SDS011;37436;53.230;6.614;2023-03-14T09:36:08;22.45;;;2.28;;
31692;SDS011;37436;53.230;6.614;2023-03-14T09:38:37;14.02;;;2.80;;
31692;SDS011;37436;53.230;6.614;2023-03-14T09:44:27;31.35;;;2.90;;
31692;SDS011;37436;53.230;6.614;2023-03-14T09:49:25;22.60;;;2.90;;
31692;SDS011;37436;53.230;6.614;2023-03-14T09:52:30;37.83;;;3.03;;
31692;SDS011;37436;53.230;6.614;2023-03-14T09:57:42;34.05;;;3.25;;
31692;SDS011;37436;53.230;6.614;2023-03-14T10:06:15;27.55;;;3.28;;
31692;SDS011;37436;53.230;6.614;2023-03-14T10:08:49;16.75;;;2.88;;
31692;SDS011;37436;53.230;6.614;2023-03-14T10:11:18;33.40;;;4.45;;
31692;SDS011;37436;53.230;6.614;2023-03-14T10:14:17;23.33;;;3.40;;
31692;SDS011;37436;53.230;6.614;2023-03-14T10:17:20;17.40;;;3.25;;
31692;SDS011;37436;53.230;6.614;2023-03-14T10:19:57;14.77;;;2.85;;
31692;SDS011;37436;53.230;6.614;2023-03-14T10:22:29;20.58;;;3.15;;
31692;SDS011;37436;53.230;6.614;2023-03-14T10:25:05;21.65;;;3.45;;
31692;SDS011;37436;53.230;6.614;2023-03-14T10:27:52;13.98;;;1.95;;
31692;SDS011;37436;53.230;6.614;2023-03-14T10:30:43;25.23;;;3.28;;
31692;SDS011;37436;53.230;6.614;2023-03-14T10:39:58;14.30;;;1.77;;
31692;SDS011;37436;53.230;6.614;2023-03-14T10:42:59;23.35;;;1.45;;
31692;SDS011;37436;53.230;6.614;2023-03-14T10:55:04;12.10;;;2.47;;
31692;SDS011;37436;53.230;6.614;2023-03-14T10:57:47;13.82;;;1.60;;
31692;SDS011;37436;53.230;6.614;2023-03-14T11:00:39;14.57;;;2.15;;
31692;SDS011;37436;53.230;6.614;2023-03-14T11:03:11;20.13;;;2.65;;
31692;SDS011;37436;53.230;6.614;2023-03-14T11:05:56;9.75;;;1.45;;
31692;SDS011;37436;53.230;6.614;2023-03-14T11:14:18;10.02;;;2.10;;
31692;SDS011;37436;53.230;6.614;2023-03-14T11:17:02;15.90;;;1.50;;
31692;SDS011;37436;53.230;6.614;2023-03-14T11:22:44;6.85;;;0.98;;
31692;SDS011;37436;53.230;6.614;2023-03-14T11:25:33;5.78;;;1.65;;
31692;SDS011;37436;53.230;6.614;2023-03-14T11:31:25;8.32;;;1.60;;
31692;SDS011;37436;53.230;6.614;2023-03-14T11:38:05;5.78;;;1.70;;
31692;SDS011;37436;53.230;6.614;2023-03-14T11:40:31;8.88;;;1.90;;
31692;SDS011;37436;53.230;6.614;2023-03-14T11:46:23;6.10;;;1.42;;
31692;SDS011;37436;53.230;6.614;2023-03-14T11:49:09;16.92;;;1.65;;
31692;SDS011;37436;53.230;6.614;2023-03-14T11:51:44;8.90;;;1.80;;
31692;SDS011;37436;53.230;6.614;2023-03-14T11:54:34;4.53;;;1.58;;
31692;SDS011;37436;53.230;6.614;2023-03-14T11:57:14;8.35;;;1.65;;
31692;SDS011;37436;53.230;6.614;2023-03-14T11:59:55;6.60;;;1.50;;
31692;SDS011;37436;53.230;6.614;2023-03-14T12:07:39;7.15;;;1.13;;
31692;SDS011;37436;53.230;6.614;2023-03-14T12:10:09;11.13;;;1.58;;
31692;SDS011;37436;53.230;6.614;2023-03-14T12:12:39;5.68;;;1.20;;
31692;SDS011;37436;53.230;6.614;2023-03-14T12:15:05;8.60;;;1.25;;
31692;SDS011;37436;53.230;6.614;2023-03-14T12:17:43;12.90;;;1.80;;
31692;SDS011;37436;53.230;6.614;2023-03-14T12:22:52;10.55;;;1.48;;
31692;SDS011;37436;53.230;6.614;2023-03-14T12:25:24;4.13;;;1.10;;
31692;SDS011;37436;53.230;6.614;2023-03-14T12:30:25;9.80;;;2.05;;
31692;SDS011;37436;53.230;6.614;2023-03-14T12:33:11;7.63;;;1.42;;
31692;SDS011;37436;53.230;6.614;2023-03-14T12:35:42;6.10;;;1.60;;
31692;SDS011;37436;53.230;6.614;2023-03-14T12:38:13;16.42;;;2.55;;
31692;SDS011;37436;53.230;6.614;2023-03-14T12:40:47;20.33;;;2.05;;
31692;SDS011;37436;53.230;6.614;2023-03-14T12:48:45;7.47;;;1.45;;
31692;SDS011;37436;53.230;6.614;2023-03-14T12:51:13;10.48;;;1.80;;
31692;SDS011;37436;53.230;6.614;2023-03-14T12:56:34;8.05;;;1.88;;
31692;SDS011;37436;53.230;6.614;2023-03-14T12:59:06;13.45;;;1.60;;
31692;SDS011;37436;53.230;6.614;2023-03-14T13:01:44;10.05;;;1.60;;
31692;SDS011;37436;53.230;6.614;2023-03-14T13:04:12;3.72;;;1.15;;
31692;SDS011;37436;53.230;6.614;2023-03-14T13:06:52;12.98;;;1.23;;
31692;SDS011;37436;53.230;6.614;2023-03-14T13:12:23;9.13;;;1.52;;
31692;SDS011;37436;53.230;6.614;2023-03-14T13:14:59;12.20;;;1.50;;
31692;SDS011;37436;53.230;6.614;2023-03-14T13:17:30;5.90;;;1.55;;
31692;SDS011;37436;53.230;6.614;2023-03-14T13:19:57;5.53;;;1.27;;
31692;SDS011;37436;53.230;6.614;2023-03-14T13:22:30;5.45;;;1.38;;
31692;SDS011;37436;53.230;6.614;2023-03-14T13:25:07;9.93;;;1.42;;
31692;SDS011;37436;53.230;6.614;2023-03-14T13:27:40;9.85;;;1.73;;
31692;SDS011;37436;53.230;6.614;2023-03-14T13:30:18;7.55;;;1.50;;
31692;SDS011;37436;53.230;6.614;2023-03-14T13:32:47;8.52;;;1.30;;
31692;SDS011;37436;53.230;6.614;2023-03-14T13:35:18;10.27;;;1.48;;
31692;SDS011;37436;53.230;6.614;2023-03-14T13:37:45;17.27;;;1.35;;
31692;SDS011;37436;53.230;6.614;2023-03-14T13:40:33;7.88;;;2.55;;
31692;SDS011;37436;53.230;6.614;2023-03-14T13:43:13;10.48;;;1.30;;
31692;SDS011;37436;53.230;6.614;2023-03-14T13:45:51;7.88;;;1.40;;
31692;SDS011;37436;53.230;6.614;2023-03-14T13:48:33;12.63;;;1.75;;
31692;SDS011;37436;53.230;6.614;2023-03-14T13:51:14;8.13;;;1.70;;
31692;SDS011;37436;53.230;6.614;2023-03-14T13:53:49;13.13;;;1.70;;
31692;SDS011;37436;53.230;6.614;2023-03-14T13:56:17;12.38;;;2.17;;
31692;SDS011;37436;53.230;6.614;2023-03-14T13:58:47;13.43;;;1.85;;
31692;SDS011;37436;53.230;6.614;2023-03-14T14:01:20;12.35;;;1.58;;
31692;SDS011;37436;53.230;6.614;2023-03-14T14:03:49;4.33;;;0.93;;
31692;SDS011;37436;53.230;6.614;2023-03-14T14:06:30;9.30;;;1.67;;
31692;SDS011;37436;53.230;6.614;2023-03-14T14:08:57;15.25;;;3.97;;
31692;SDS011;37436;53.230;6.614;2023-03-14T14:12:10;8.93;;;1.13;;
31692;SDS011;37436;53.230;6.614;2023-03-14T14:14:19;8.05;;;1.73;;
31692;SDS011;37436;53.230;6.614;2023-03-14T14:16:47;17.05;;;2.08;;
31692;SDS011;37436;53.230;6.614;2023-03-14T14:19:15;5.35;;;1.70;;
31692;SDS011;37436;53.230;6.614;2023-03-14T14:21:42;7.00;;;1.60;;
31692;SDS011;37436;53.230;6.614;2023-03-14T14:24:11;8.13;;;1.38;;
31692;SDS011;37436;53.230;6.614;2023-03-14T14:26:47;9.38;;;1.55;;
31692;SDS011;37436;53.230;6.614;2023-03-14T14:29:32;7.15;;;1.30;;
31692;SDS011;37436;53.230;6.614;2023-03-14T14:34:57;4.85;;;1.55;;
31692;SDS011;37436;53.230;6.614;2023-03-14T14:37:24;8.13;;;1.33;;
31692;SDS011;37436;53.230;6.614;2023-03-14T14:39:52;6.68;;;2.10;;
31692;SDS011;37436;53.230;6.614;2023-03-14T14:42:19;8.98;;;1.83;;
31692;SDS011;37436;53.230;6.614;2023-03-14T14:44:49;13.63;;;1.55;;
31692;SDS011;37436;53.230;6.614;2023-03-14T14:47:18;9.68;;;2.00;;
31692;SDS011;37436;53.230;6.614;2023-03-14T14:49:45;13.93;;;2.00;;
31692;SDS011;37436;53.230;6.614;2023-03-14T14:52:16;12.68;;;2.10;;
31692;SDS011;37436;53.230;6.614;2023-03-14T14:54:51;26.20;;;3.10;;
31692;SDS011;37436;53.230;6.614;2023-03-14T14:57:40;13.68;;;2.55;;
31692;SDS011;37436;53.230;6.614;2023-03-14T15:00:08;21.70;;;2.78;;
31692;SDS011;37436;53.230;6.614;2023-03-14T15:02:47;4.78;;;1.00;;
31692;SDS011;37436;53.230;6.614;2023-03-14T15:05:18;11.18;;;1.20;;
31692;SDS011;37436;53.230;6.614;2023-03-14T15:07:45;17.85;;;2.17;;
31692;SDS011;37436;53.230;6.614;2023-03-14T15:10:12;10.63;;;1.30;;
31692;SDS011;37436;53.230;6.614;2023-03-14T15:12:39;8.63;;;1.60;;
31692;SDS011;37436;53.230;6.614;2023-03-14T15:15:06;10.38;;;1.20;;
31692;SDS011;37436;53.230;6.614;2023-03-14T15:17:35;10.18;;;1.00;;
31692;SDS011;37436;53.230;6.614;2023-03-14T15:20:02;5.25;;;1.08;;
31692;SDS011;37436;53.230;6.614;2023-03-14T15:22:32;8.70;;;1.08;;
31692;SDS011;37436;53.230;6.614;2023-03-14T15:24:58;5.30;;;2.05;;
31692;SDS011;37436;53.230;6.614;2023-03-14T15:27:25;9.18;;;2.15;;
31692;SDS011;37436;53.230;6.614;2023-03-14T15:29:52;5.32;;;1.10;;
31692;SDS011;37436;53.230;6.614;2023-03-14T15:32:22;5.82;;;1.20;;
31692;SDS011;37436;53.230;6.614;2023-03-14T15:34:55;7.03;;;1.38;;
31692;SDS011;37436;53.230;6.614;2023-03-14T15:37:22;11.50;;;1.55;;
31692;SDS011;37436;53.230;6.614;2023-03-14T15:39:52;9.40;;;2.08;;
31692;SDS011;37436;53.230;6.614;2023-03-14T15:42:25;7.82;;;0.85;;
31692;SDS011;37436;53.230;6.614;2023-03-14T15:45:08;3.88;;;1.02;;
31692;SDS011;37436;53.230;6.614;2023-03-14T15:47:34;5.88;;;1.25;;
31692;SDS011;37436;53.230;6.614;2023-03-14T15:50:30;5.30;;;1.80;;
31692;SDS011;37436;53.230;6.614;2023-03-14T15:52:56;5.72;;;0.88;;
31692;SDS011;37436;53.230;6.614;2023-03-14T15:55:22;7.35;;;1.40;;
31692;SDS011;37436;53.230;6.614;2023-03-14T15:57:57;8.23;;;1.23;;
31692;SDS011;37436;53.230;6.614;2023-03-14T16:00:24;10.63;;;1.77;;
31692;SDS011;37436;53.230;6.614;2023-03-14T16:02:56;1.67;;;0.40;;
31692;SDS011;37436;53.230;6.614;2023-03-14T16:05:25;7.68;;;1.33;;
31692;SDS011;37436;53.230;6.614;2023-03-14T16:07:58;6.25;;;0.95;;
31692;SDS011;37436;53.230;6.614;2023-03-14T16:10:26;9.18;;;1.25;;
31692;SDS011;37436;53.230;6.614;2023-03-14T16:18:41;4.88;;;1.10;;
31692;SDS011;37436;53.230;6.614;2023-03-14T16:21:10;7.63;;;1.38;;
31692;SDS011;37436;53.230;6.614;2023-03-14T16:23:37;2.50;;;1.02;;
31692;SDS011;37436;53.230;6.614;2023-03-14T16:26:06;4.63;;;0.70;;
31692;SDS011;37436;53.230;6.614;2023-03-14T16:28:32;4.32;;;1.52;;
31692;SDS011;37436;53.230;6.614;2023-03-14T16:31:01;6.75;;;1.55;;
31692;SDS011;37436;53.230;6.614;2023-03-14T16:33:27;11.45;;;1.52;;
31692;SDS011;37436;53.230;6.614;2023-03-14T16:35:57;2.45;;;0.52;;
31692;SDS011;37436;53.230;6.614;2023-03-14T16:38:30;6.63;;;1.85;;
31692;SDS011;37436;53.230;6.614;2023-03-14T16:41:13;2.80;;;0.88;;
31692;SDS011;37436;53.230;6.614;2023-03-14T16:43:40;12.98;;;2.67;;
31692;SDS011;37436;53.230;6.614;2023-03-14T16:46:09;9.32;;;1.77;;
31692;SDS011;37436;53.230;6.614;2023-03-14T16:48:59;7.78;;;1.13;;
31692;SDS011;37436;53.230;6.614;2023-03-14T16:51:26;15.93;;;2.72;;
31692;SDS011;37436;53.230;6.614;2023-03-14T16:53:52;7.05;;;1.25;;
31692;SDS011;37436;53.230;6.614;2023-03-14T16:56:22;9.80;;;1.40;;
31692;SDS011;37436;53.230;6.614;2023-03-14T16:58:49;8.43;;;1.55;;
31692;SDS011;37436;53.230;6.614;2023-03-14T17:01:16;5.43;;;0.93;;
31692;SDS011;37436;53.230;6.614;2023-03-14T17:06:29;14.65;;;1.85;;
31692;SDS011;37436;53.230;6.614;2023-03-14T17:08:56;13.80;;;2.08;;
31692;SDS011;37436;53.230;6.614;2023-03-14T17:11:22;4.97;;;1.42;;
31692;SDS011;37436;53.230;6.614;2023-03-14T17:13:48;4.88;;;1.42;;
31692;SDS011;37436;53.230;6.614;2023-03-14T17:16:15;5.88;;;1.10;;
31692;SDS011;37436;53.230;6.614;2023-03-14T17:18:41;4.68;;;1.38;;
31692;SDS011;37436;53.230;6.614;2023-03-14T17:21:07;5.80;;;1.30;;
31692;SDS011;37436;53.230;6.614;2023-03-14T17:23:35;9.18;;;1.48;;
31692;SDS011;37436;53.230;6.614;2023-03-14T17:26:02;4.45;;;1.08;;
31692;SDS011;37436;53.230;6.614;2023-03-14T17:28:29;7.50;;;1.48;;
31692;SDS011;37436;53.230;6.614;2023-03-14T17:31:06;11.75;;;1.73;;
31692;SDS011;37436;53.230;6.614;2023-03-14T17:33:44;4.35;;;1.88;;
31692;SDS011;37436;53.230;6.614;2023-03-14T17:36:14;8.63;;;1.92;;
31692;SDS011;37436;53.230;6.614;2023-03-14T17:38:41;10.75;;;0.93;;
31692;SDS011;37436;53.230;6.614;2023-03-14T17:41:11;7.95;;;0.80;;
31692;SDS011;37436;53.230;6.614;2023-03-14T17:43:39;4.15;;;1.20;;